sensor_id;sensor_type;location;lat;lon;timestamp;P1;durP1;ratioP1;P2;durP2;ratioP2
85705;SDS011;76142;52.376;9.712;2024-03-08T00:01:59;43.35;;;17.75;;
85705;SDS011;76142;52.376;9.712;2024-03-08T00:04:25;44.78;;;18.23;;
85705;SDS011;76142;52.376;9.712;2024-03-08T00:06:51;40.50;;;17.92;;
85705;SDS011;76142;52.376;9.712;2024-03-08T00:09:17;36.78;;;16.58;;
85705;SDS011;76142;52.376;9.712;2024-03-08T00:11:43;39.35;;;17.55;;
85705;SDS011;76142;52.376;9.712;2024-03-08T00:14:08;39.95;;;17.27;;
85705;SDS011;76142;52.376;9.712;2024-03-08T00:16:34;38.95;;;16.33;;
85705;SDS011;76142;52.376;9.712;2024-03-08T00:19:03;38.60;;;16.13;;
85705;SDS011;76142;52.376;9.712;2024-03-08T00:21:29;36.13;;;16.45;;
85705;SDS011;76142;52.376;9.712;2024-03-08T00:23:55;39.83;;;16.30;;
85705;SDS011;76142;52.376;9.712;2024-03-08T00:26:21;36.72;;;16.70;;
85705;SDS011;76142;52.376;9.712;2024-03-08T00:28:49;40.33;;;17.38;;
85705;SDS011;76142;52.376;9.712;2024-03-08T00:31:15;40.80;;;16.58;;
85705;SDS011;76142;52.376;9.712;2024-03-08T00:33:43;38.10;;;16.45;;
85705;SDS011;76142;52.376;9.712;2024-03-08T00:36:09;40.33;;;17.13;;
85705;SDS011;76142;52.376;9.712;2024-03-08T00:38:34;35.28;;;16.08;;
85705;SDS011;76142;52.376;9.712;2024-03-08T00:41:00;40.72;;;17.77;;
85705;SDS011;76142;52.376;9.712;2024-03-08T00:43:25;37.60;;;16.75;;
85705;SDS011;76142;52.376;9.712;2024-03-08T00:45:51;39.60;;;16.88;;
85705;SDS011;76142;52.376;9.712;2024-03-08T00:48:17;43.83;;;16.95;;
85705;SDS011;76142;52.376;9.712;2024-03-08T00:50:43;36.55;;;16.10;;
85705;SDS011;76142;52.376;9.712;2024-03-08T00:53:11;40.53;;;16.25;;
85705;SDS011;76142;52.376;9.712;2024-03-08T00:55:37;38.22;;;17.77;;
85705;SDS011;76142;52.376;9.712;2024-03-08T00:58:04;44.53;;;17.58;;
85705;SDS011;76142;52.376;9.712;2024-03-08T01:00:29;42.92;;;17.90;;
85705;SDS011;76142;52.376;9.712;2024-03-08T01:02:56;42.40;;;17.98;;
85705;SDS011;76142;52.376;9.712;2024-03-08T01:05:22;40.90;;;17.67;;
85705;SDS011;76142;52.376;9.712;2024-03-08T01:07:50;41.85;;;17.73;;
85705;SDS011;76142;52.376;9.712;2024-03-08T01:10:16;39.72;;;17.48;;
85705;SDS011;76142;52.376;9.712;2024-03-08T01:12:42;38.38;;;17.55;;
85705;SDS011;76142;52.376;9.712;2024-03-08T01:15:08;39.78;;;17.08;;
85705;SDS011;76142;52.376;9.712;2024-03-08T01:17:35;40.30;;;17.27;;
85705;SDS011;76142;52.376;9.712;2024-03-08T01:20:02;44.40;;;18.17;;
85705;SDS011;76142;52.376;9.712;2024-03-08T01:22:29;44.72;;;18.70;;
85705;SDS011;76142;52.376;9.712;2024-03-08T01:24:55;44.35;;;17.98;;
85705;SDS011;76142;52.376;9.712;2024-03-08T01:27:21;46.75;;;19.13;;
85705;SDS011;76142;52.376;9.712;2024-03-08T01:29:47;46.85;;;19.33;;
85705;SDS011;76142;52.376;9.712;2024-03-08T01:32:13;44.25;;;17.50;;
85705;SDS011;76142;52.376;9.712;2024-03-08T01:34:39;45.03;;;18.45;;
85705;SDS011;76142;52.376;9.712;2024-03-08T01:37:05;48.63;;;18.23;;
85705;SDS011;76142;52.376;9.712;2024-03-08T01:39:31;45.25;;;18.35;;
85705;SDS011;76142;52.376;9.712;2024-03-08T01:41:57;46.35;;;17.70;;
85705;SDS011;76142;52.376;9.712;2024-03-08T01:44:23;42.35;;;18.27;;
85705;SDS011;76142;52.376;9.712;2024-03-08T01:46:49;39.80;;;16.65;;
85705;SDS011;76142;52.376;9.712;2024-03-08T01:49:17;43.75;;;17.83;;
85705;SDS011;76142;52.376;9.712;2024-03-08T01:51:45;41.33;;;18.15;;
85705;SDS011;76142;52.376;9.712;2024-03-08T01:54:11;44.00;;;18.13;;
85705;SDS011;76142;52.376;9.712;2024-03-08T01:56:40;40.03;;;17.95;;
85705;SDS011;76142;52.376;9.712;2024-03-08T01:59:06;42.53;;;18.10;;
85705;SDS011;76142;52.376;9.712;2024-03-08T02:01:32;45.70;;;18.38;;
85705;SDS011;76142;52.376;9.712;2024-03-08T02:03:59;46.95;;;18.30;;
85705;SDS011;76142;52.376;9.712;2024-03-08T02:06:25;43.20;;;18.05;;
85705;SDS011;76142;52.376;9.712;2024-03-08T02:08:50;42.30;;;17.60;;
85705;SDS011;76142;52.376;9.712;2024-03-08T02:11:17;41.25;;;17.45;;
85705;SDS011;76142;52.376;9.712;2024-03-08T02:13:43;44.60;;;17.85;;
85705;SDS011;76142;52.376;9.712;2024-03-08T02:16:09;43.10;;;18.30;;
85705;SDS011;76142;52.376;9.712;2024-03-08T02:18:35;43.00;;;18.30;;
85705;SDS011;76142;52.376;9.712;2024-03-08T02:21:02;41.92;;;17.85;;
85705;SDS011;76142;52.376;9.712;2024-03-08T02:23:29;44.88;;;18.55;;
85705;SDS011;76142;52.376;9.712;2024-03-08T02:25:56;43.88;;;17.40;;
85705;SDS011;76142;52.376;9.712;2024-03-08T02:28:22;44.63;;;18.17;;
85705;SDS011;76142;52.376;9.712;2024-03-08T02:30:48;43.90;;;17.65;;
85705;SDS011;76142;52.376;9.712;2024-03-08T02:33:16;43.88;;;18.98;;
85705;SDS011;76142;52.376;9.712;2024-03-08T02:35:43;42.50;;;17.88;;
85705;SDS011;76142;52.376;9.712;2024-03-08T02:38:15;47.47;;;18.17;;
85705;SDS011;76142;52.376;9.712;2024-03-08T02:40:43;45.70;;;19.02;;
85705;SDS011;76142;52.376;9.712;2024-03-08T02:43:10;45.63;;;18.55;;
85705;SDS011;76142;52.376;9.712;2024-03-08T02:45:37;41.63;;;18.55;;
85705;SDS011;76142;52.376;9.712;2024-03-08T02:48:03;43.53;;;17.92;;
85705;SDS011;76142;52.376;9.712;2024-03-08T02:50:31;42.35;;;17.48;;
85705;SDS011;76142;52.376;9.712;2024-03-08T02:52:57;41.30;;;17.83;;
85705;SDS011;76142;52.376;9.712;2024-03-08T02:55:23;46.92;;;18.83;;
85705;SDS011;76142;52.376;9.712;2024-03-08T02:57:51;46.78;;;18.08;;
85705;SDS011;76142;52.376;9.712;2024-03-08T03:00:17;47.83;;;18.48;;
85705;SDS011;76142;52.376;9.712;2024-03-08T03:02:44;43.38;;;19.17;;
85705;SDS011;76142;52.376;9.712;2024-03-08T03:05:10;50.90;;;18.60;;
85705;SDS011;76142;52.376;9.712;2024-03-08T03:07:36;42.50;;;17.80;;
85705;SDS011;76142;52.376;9.712;2024-03-08T03:10:03;47.35;;;18.58;;
85705;SDS011;76142;52.376;9.712;2024-03-08T03:12:29;44.75;;;19.00;;
85705;SDS011;76142;52.376;9.712;2024-03-08T03:14:56;44.13;;;18.13;;
85705;SDS011;76142;52.376;9.712;2024-03-08T03:17:23;49.67;;;18.83;;
85705;SDS011;76142;52.376;9.712;2024-03-08T03:19:49;47.47;;;19.38;;
85705;SDS011;76142;52.376;9.712;2024-03-08T03:22:16;44.92;;;19.08;;
85705;SDS011;76142;52.376;9.712;2024-03-08T03:24:43;42.55;;;18.38;;
85705;SDS011;76142;52.376;9.712;2024-03-08T03:27:09;42.08;;;18.20;;
85705;SDS011;76142;52.376;9.712;2024-03-08T03:29:40;43.65;;;18.23;;
85705;SDS011;76142;52.376;9.712;2024-03-08T03:32:13;46.40;;;18.45;;
85705;SDS011;76142;52.376;9.712;2024-03-08T03:34:40;46.80;;;18.83;;
85705;SDS011;76142;52.376;9.712;2024-03-08T03:37:07;45.17;;;18.58;;
85705;SDS011;76142;52.376;9.712;2024-03-08T03:39:39;45.15;;;18.92;;
85705;SDS011;76142;52.376;9.712;2024-03-08T03:42:16;43.45;;;18.52;;
85705;SDS011;76142;52.376;9.712;2024-03-08T03:44:46;48.80;;;19.67;;
85705;SDS011;76142;52.376;9.712;2024-03-08T03:47:12;42.55;;;18.70;;
85705;SDS011;76142;52.376;9.712;2024-03-08T03:49:39;43.22;;;18.42;;
85705;SDS011;76142;52.376;9.712;2024-03-08T03:52:05;50.47;;;18.80;;
85705;SDS011;76142;52.376;9.712;2024-03-08T03:54:31;47.45;;;18.95;;
85705;SDS011;76142;52.376;9.712;2024-03-08T03:56:58;47.90;;;19.25;;
85705;SDS011;76142;52.376;9.712;2024-03-08T03:59:25;46.65;;;19.10;;
85705;SDS011;76142;52.376;9.712;2024-03-08T04:01:54;44.30;;;18.70;;
85705;SDS011;76142;52.376;9.712;2024-03-08T04:04:23;43.28;;;18.20;;
85705;SDS011;76142;52.376;9.712;2024-03-08T04:06:49;48.88;;;20.00;;
85705;SDS011;76142;52.376;9.712;2024-03-08T04:09:16;44.67;;;18.88;;
85705;SDS011;76142;52.376;9.712;2024-03-08T04:11:44;43.63;;;18.42;;
85705;SDS011;76142;52.376;9.712;2024-03-08T04:14:10;47.85;;;19.52;;
85705;SDS011;76142;52.376;9.712;2024-03-08T04:16:35;45.70;;;18.50;;
85705;SDS011;76142;52.376;9.712;2024-03-08T04:19:02;46.08;;;19.52;;
85705;SDS011;76142;52.376;9.712;2024-03-08T04:21:32;45.55;;;19.15;;
85705;SDS011;76142;52.376;9.712;2024-03-08T04:23:58;48.67;;;19.10;;
85705;SDS011;76142;52.376;9.712;2024-03-08T04:26:23;46.83;;;18.38;;
85705;SDS011;76142;52.376;9.712;2024-03-08T04:28:51;52.78;;;19.90;;
85705;SDS011;76142;52.376;9.712;2024-03-08T04:31:16;43.75;;;18.52;;
85705;SDS011;76142;52.376;9.712;2024-03-08T04:33:42;48.03;;;19.88;;
85705;SDS011;76142;52.376;9.712;2024-03-08T04:36:09;46.58;;;19.60;;
85705;SDS011;76142;52.376;9.712;2024-03-08T04:38:38;45.00;;;18.70;;
85705;SDS011;76142;52.376;9.712;2024-03-08T04:41:07;46.33;;;19.38;;
85705;SDS011;76142;52.376;9.712;2024-03-08T04:43:33;47.53;;;19.45;;
85705;SDS011;76142;52.376;9.712;2024-03-08T04:45:59;50.38;;;19.30;;
85705;SDS011;76142;52.376;9.712;2024-03-08T04:48:25;49.50;;;19.85;;
85705;SDS011;76142;52.376;9.712;2024-03-08T04:50:52;51.10;;;19.88;;
85705;SDS011;76142;52.376;9.712;2024-03-08T04:53:18;50.53;;;19.48;;
85705;SDS011;76142;52.376;9.712;2024-03-08T04:55:44;50.55;;;19.08;;
85705;SDS011;76142;52.376;9.712;2024-03-08T04:58:10;55.83;;;20.00;;
85705;SDS011;76142;52.376;9.712;2024-03-08T05:00:36;45.72;;;19.85;;
85705;SDS011;76142;52.376;9.712;2024-03-08T05:03:02;54.22;;;20.20;;
85705;SDS011;76142;52.376;9.712;2024-03-08T05:05:29;56.97;;;20.45;;
85705;SDS011;76142;52.376;9.712;2024-03-08T05:07:55;48.25;;;20.30;;
85705;SDS011;76142;52.376;9.712;2024-03-08T05:10:21;53.58;;;21.10;;
85705;SDS011;76142;52.376;9.712;2024-03-08T05:12:46;56.55;;;20.92;;
85705;SDS011;76142;52.376;9.712;2024-03-08T05:15:12;54.10;;;20.35;;
85705;SDS011;76142;52.376;9.712;2024-03-08T05:17:38;55.40;;;22.05;;
85705;SDS011;76142;52.376;9.712;2024-03-08T05:20:05;49.33;;;21.27;;
85705;SDS011;76142;52.376;9.712;2024-03-08T05:22:33;60.65;;;21.13;;
85705;SDS011;76142;52.376;9.712;2024-03-08T05:24:59;57.97;;;20.55;;
85705;SDS011;76142;52.376;9.712;2024-03-08T05:27:24;56.78;;;20.70;;
85705;SDS011;76142;52.376;9.712;2024-03-08T05:29:50;53.08;;;20.15;;
85705;SDS011;76142;52.376;9.712;2024-03-08T05:32:16;56.95;;;21.08;;
85705;SDS011;76142;52.376;9.712;2024-03-08T05:34:41;52.83;;;21.33;;
85705;SDS011;76142;52.376;9.712;2024-03-08T05:37:07;56.45;;;20.35;;
85705;SDS011;76142;52.376;9.712;2024-03-08T05:39:33;59.53;;;21.90;;
85705;SDS011;76142;52.376;9.712;2024-03-08T05:41:59;57.30;;;21.48;;
85705;SDS011;76142;52.376;9.712;2024-03-08T05:44:24;57.08;;;22.20;;
85705;SDS011;76142;52.376;9.712;2024-03-08T05:46:53;55.90;;;22.23;;
85705;SDS011;76142;52.376;9.712;2024-03-08T05:49:20;53.20;;;21.25;;
85705;SDS011;76142;52.376;9.712;2024-03-08T05:51:46;57.75;;;22.23;;
85705;SDS011;76142;52.376;9.712;2024-03-08T05:54:12;55.47;;;23.08;;
85705;SDS011;76142;52.376;9.712;2024-03-08T05:56:39;53.63;;;21.92;;
85705;SDS011;76142;52.376;9.712;2024-03-08T05:59:09;57.13;;;22.10;;
85705;SDS011;76142;52.376;9.712;2024-03-08T06:01:35;55.45;;;21.35;;
85705;SDS011;76142;52.376;9.712;2024-03-08T06:04:01;54.72;;;22.23;;
85705;SDS011;76142;52.376;9.712;2024-03-08T06:06:28;50.63;;;21.40;;
85705;SDS011;76142;52.376;9.712;2024-03-08T06:08:54;57.70;;;22.30;;
85705;SDS011;76142;52.376;9.712;2024-03-08T06:11:24;55.75;;;22.52;;
85705;SDS011;76142;52.376;9.712;2024-03-08T06:13:52;54.67;;;21.95;;
85705;SDS011;76142;52.376;9.712;2024-03-08T06:16:24;55.05;;;23.08;;
85705;SDS011;76142;52.376;9.712;2024-03-08T06:18:54;57.30;;;23.38;;
85705;SDS011;76142;52.376;9.712;2024-03-08T06:21:26;51.67;;;20.77;;
85705;SDS011;76142;52.376;9.712;2024-03-08T06:23:54;53.92;;;22.27;;
85705;SDS011;76142;52.376;9.712;2024-03-08T06:26:23;53.53;;;20.95;;
85705;SDS011;76142;52.376;9.712;2024-03-08T06:28:50;58.08;;;23.52;;
85705;SDS011;76142;52.376;9.712;2024-03-08T06:31:16;54.05;;;22.10;;
85705;SDS011;76142;52.376;9.712;2024-03-08T06:33:41;54.22;;;21.98;;
85705;SDS011;76142;52.376;9.712;2024-03-08T06:36:08;52.63;;;21.60;;
85705;SDS011;76142;52.376;9.712;2024-03-08T06:38:34;55.45;;;23.10;;
85705;SDS011;76142;52.376;9.712;2024-03-08T06:41:00;54.42;;;21.92;;
85705;SDS011;76142;52.376;9.712;2024-03-08T06:43:28;54.00;;;22.90;;
85705;SDS011;76142;52.376;9.712;2024-03-08T06:45:59;53.30;;;22.65;;
85705;SDS011;76142;52.376;9.712;2024-03-08T06:48:24;62.45;;;22.95;;
85705;SDS011;76142;52.376;9.712;2024-03-08T06:50:50;56.45;;;22.67;;
85705;SDS011;76142;52.376;9.712;2024-03-08T06:53:16;56.30;;;21.63;;
85705;SDS011;76142;52.376;9.712;2024-03-08T06:55:44;54.67;;;23.70;;
85705;SDS011;76142;52.376;9.712;2024-03-08T06:58:10;52.85;;;22.50;;
85705;SDS011;76142;52.376;9.712;2024-03-08T07:00:36;54.20;;;23.45;;
85705;SDS011;76142;52.376;9.712;2024-03-08T07:03:02;55.42;;;22.77;;
85705;SDS011;76142;52.376;9.712;2024-03-08T07:05:28;54.88;;;23.00;;
85705;SDS011;76142;52.376;9.712;2024-03-08T07:07:54;56.88;;;22.90;;
85705;SDS011;76142;52.376;9.712;2024-03-08T07:10:21;54.95;;;23.00;;
85705;SDS011;76142;52.376;9.712;2024-03-08T07:12:49;54.83;;;22.65;;
85705;SDS011;76142;52.376;9.712;2024-03-08T07:15:20;57.90;;;22.40;;
85705;SDS011;76142;52.376;9.712;2024-03-08T07:17:48;54.15;;;22.65;;
85705;SDS011;76142;52.376;9.712;2024-03-08T07:20:14;47.90;;;21.50;;
85705;SDS011;76142;52.376;9.712;2024-03-08T07:22:43;58.88;;;23.23;;
85705;SDS011;76142;52.376;9.712;2024-03-08T07:25:12;52.88;;;21.80;;
85705;SDS011;76142;52.376;9.712;2024-03-08T07:27:54;46.55;;;21.67;;
85705;SDS011;76142;52.376;9.712;2024-03-08T07:30:21;54.45;;;23.40;;
85705;SDS011;76142;52.376;9.712;2024-03-08T07:33:09;78.07;;;29.20;;
85705;SDS011;76142;52.376;9.712;2024-03-08T07:35:38;103.88;;;38.90;;
85705;SDS011;76142;52.376;9.712;2024-03-08T07:38:04;62.20;;;25.10;;
85705;SDS011;76142;52.376;9.712;2024-03-08T07:40:30;56.08;;;22.65;;
85705;SDS011;76142;52.376;9.712;2024-03-08T07:42:57;52.42;;;22.77;;
85705;SDS011;76142;52.376;9.712;2024-03-08T07:45:23;53.65;;;21.38;;
85705;SDS011;76142;52.376;9.712;2024-03-08T07:47:49;51.50;;;22.50;;
85705;SDS011;76142;52.376;9.712;2024-03-08T07:50:16;52.78;;;22.95;;
85705;SDS011;76142;52.376;9.712;2024-03-08T07:52:42;53.85;;;22.67;;
85705;SDS011;76142;52.376;9.712;2024-03-08T07:55:07;51.30;;;22.73;;
85705;SDS011;76142;52.376;9.712;2024-03-08T07:57:35;49.25;;;22.15;;
85705;SDS011;76142;52.376;9.712;2024-03-08T08:00:02;50.50;;;21.20;;
85705;SDS011;76142;52.376;9.712;2024-03-08T08:02:32;45.88;;;21.38;;
85705;SDS011;76142;52.376;9.712;2024-03-08T08:04:58;50.75;;;21.75;;
85705;SDS011;76142;52.376;9.712;2024-03-08T08:07:24;44.45;;;20.65;;
85705;SDS011;76142;52.376;9.712;2024-03-08T08:09:49;80.20;;;32.03;;
85705;SDS011;76142;52.376;9.712;2024-03-08T08:12:15;46.95;;;22.75;;
85705;SDS011;76142;52.376;9.712;2024-03-08T08:14:41;46.83;;;20.85;;
85705;SDS011;76142;52.376;9.712;2024-03-08T08:17:07;42.65;;;19.38;;
85705;SDS011;76142;52.376;9.712;2024-03-08T08:19:34;46.40;;;20.33;;
85705;SDS011;76142;52.376;9.712;2024-03-08T08:22:00;41.25;;;19.83;;
85705;SDS011;76142;52.376;9.712;2024-03-08T08:24:27;47.45;;;20.05;;
85705;SDS011;76142;52.376;9.712;2024-03-08T08:26:53;43.80;;;20.90;;
85705;SDS011;76142;52.376;9.712;2024-03-08T08:29:19;40.90;;;20.95;;
85705;SDS011;76142;52.376;9.712;2024-03-08T08:31:45;45.75;;;20.45;;
85705;SDS011;76142;52.376;9.712;2024-03-08T08:34:11;44.78;;;21.48;;
85705;SDS011;76142;52.376;9.712;2024-03-08T08:36:38;45.78;;;20.75;;
85705;SDS011;76142;52.376;9.712;2024-03-08T08:39:04;45.30;;;22.13;;
85705;SDS011;76142;52.376;9.712;2024-03-08T08:41:37;43.42;;;21.70;;
85705;SDS011;76142;52.376;9.712;2024-03-08T08:44:03;44.53;;;20.85;;
85705;SDS011;76142;52.376;9.712;2024-03-08T08:46:28;46.72;;;21.60;;
85705;SDS011;76142;52.376;9.712;2024-03-08T08:48:54;46.40;;;21.52;;
85705;SDS011;76142;52.376;9.712;2024-03-08T08:51:20;43.70;;;20.67;;
85705;SDS011;76142;52.376;9.712;2024-03-08T08:53:48;41.92;;;20.17;;
85705;SDS011;76142;52.376;9.712;2024-03-08T08:56:13;60.67;;;26.58;;
85705;SDS011;76142;52.376;9.712;2024-03-08T08:58:40;46.03;;;20.48;;
85705;SDS011;76142;52.376;9.712;2024-03-08T09:01:07;46.75;;;21.38;;
85705;SDS011;76142;52.376;9.712;2024-03-08T09:03:35;46.88;;;21.85;;
85705;SDS011;76142;52.376;9.712;2024-03-08T09:06:02;43.65;;;21.13;;
85705;SDS011;76142;52.376;9.712;2024-03-08T09:08:34;51.45;;;21.42;;
85705;SDS011;76142;52.376;9.712;2024-03-08T09:11:01;44.75;;;21.77;;
85705;SDS011;76142;52.376;9.712;2024-03-08T09:13:27;39.67;;;19.95;;
85705;SDS011;76142;52.376;9.712;2024-03-08T09:15:52;39.45;;;20.30;;
85705;SDS011;76142;52.376;9.712;2024-03-08T09:18:18;44.95;;;21.10;;
85705;SDS011;76142;52.376;9.712;2024-03-08T09:20:44;43.58;;;21.38;;
85705;SDS011;76142;52.376;9.712;2024-03-08T09:23:10;43.17;;;20.77;;
85705;SDS011;76142;52.376;9.712;2024-03-08T09:25:36;42.40;;;21.40;;
85705;SDS011;76142;52.376;9.712;2024-03-08T09:28:02;48.38;;;22.10;;
85705;SDS011;76142;52.376;9.712;2024-03-08T09:30:28;45.90;;;22.80;;
85705;SDS011;76142;52.376;9.712;2024-03-08T09:32:54;40.63;;;20.58;;
85705;SDS011;76142;52.376;9.712;2024-03-08T09:35:19;43.42;;;21.08;;
85705;SDS011;76142;52.376;9.712;2024-03-08T09:37:45;41.42;;;21.52;;
85705;SDS011;76142;52.376;9.712;2024-03-08T09:40:12;43.90;;;21.10;;
85705;SDS011;76142;52.376;9.712;2024-03-08T09:42:40;56.65;;;25.48;;
85705;SDS011;76142;52.376;9.712;2024-03-08T09:45:10;109.57;;;45.70;;
85705;SDS011;76142;52.376;9.712;2024-03-08T09:47:44;56.72;;;27.52;;
85705;SDS011;76142;52.376;9.712;2024-03-08T09:50:10;48.08;;;23.77;;
85705;SDS011;76142;52.376;9.712;2024-03-08T09:52:41;46.13;;;23.70;;
85705;SDS011;76142;52.376;9.712;2024-03-08T09:55:11;41.28;;;20.27;;
85705;SDS011;76142;52.376;9.712;2024-03-08T09:57:37;39.97;;;20.83;;
85705;SDS011;76142;52.376;9.712;2024-03-08T10:00:04;36.47;;;19.58;;
85705;SDS011;76142;52.376;9.712;2024-03-08T10:02:46;37.50;;;20.35;;
85705;SDS011;76142;52.376;9.712;2024-03-08T10:05:12;40.05;;;20.08;;
85705;SDS011;76142;52.376;9.712;2024-03-08T10:07:39;40.47;;;20.13;;
85705;SDS011;76142;52.376;9.712;2024-03-08T10:10:05;39.40;;;20.63;;
85705;SDS011;76142;52.376;9.712;2024-03-08T10:12:30;37.88;;;19.75;;
85705;SDS011;76142;52.376;9.712;2024-03-08T10:14:58;40.80;;;21.05;;
85705;SDS011;76142;52.376;9.712;2024-03-08T10:17:24;41.17;;;21.52;;
85705;SDS011;76142;52.376;9.712;2024-03-08T10:19:51;39.25;;;20.33;;
85705;SDS011;76142;52.376;9.712;2024-03-08T10:22:17;41.15;;;20.20;;
85705;SDS011;76142;52.376;9.712;2024-03-08T10:24:44;44.20;;;22.00;;
85705;SDS011;76142;52.376;9.712;2024-03-08T10:27:11;45.08;;;21.08;;
85705;SDS011;76142;52.376;9.712;2024-03-08T10:29:37;45.00;;;21.17;;
85705;SDS011;76142;52.376;9.712;2024-03-08T10:32:04;42.67;;;21.52;;
85705;SDS011;76142;52.376;9.712;2024-03-08T10:34:31;44.05;;;21.15;;
85705;SDS011;76142;52.376;9.712;2024-03-08T10:36:58;42.70;;;21.75;;
85705;SDS011;76142;52.376;9.712;2024-03-08T10:39:29;43.75;;;21.30;;
85705;SDS011;76142;52.376;9.712;2024-03-08T10:42:01;62.35;;;29.52;;
85705;SDS011;76142;52.376;9.712;2024-03-08T10:47:08;47.03;;;22.58;;
85705;SDS011;76142;52.376;9.712;2024-03-08T10:52:16;46.10;;;22.05;;
85705;SDS011;76142;52.376;9.712;2024-03-08T10:54:43;43.03;;;22.23;;
85705;SDS011;76142;52.376;9.712;2024-03-08T10:57:11;49.78;;;21.95;;
85705;SDS011;76142;52.376;9.712;2024-03-08T10:59:38;45.67;;;21.15;;
85705;SDS011;76142;52.376;9.712;2024-03-08T11:02:04;43.30;;;21.30;;
85705;SDS011;76142;52.376;9.712;2024-03-08T11:04:33;43.97;;;20.88;;
85705;SDS011;76142;52.376;9.712;2024-03-08T11:07:02;43.30;;;21.00;;
85705;SDS011;76142;52.376;9.712;2024-03-08T11:09:31;38.28;;;20.52;;
85705;SDS011;76142;52.376;9.712;2024-03-08T11:14:54;42.38;;;20.48;;
85705;SDS011;76142;52.376;9.712;2024-03-08T11:17:44;44.83;;;21.98;;
85705;SDS011;76142;52.376;9.712;2024-03-08T11:20:19;40.22;;;20.75;;
85705;SDS011;76142;52.376;9.712;2024-03-08T11:25:33;40.42;;;20.02;;
85705;SDS011;76142;52.376;9.712;2024-03-08T11:33:27;43.70;;;21.25;;
85705;SDS011;76142;52.376;9.712;2024-03-08T11:36:03;43.47;;;20.63;;
85705;SDS011;76142;52.376;9.712;2024-03-08T11:38:43;43.47;;;22.17;;
85705;SDS011;76142;52.376;9.712;2024-03-08T11:41:09;46.85;;;22.55;;
85705;SDS011;76142;52.376;9.712;2024-03-08T11:43:39;45.08;;;22.52;;
85705;SDS011;76142;52.376;9.712;2024-03-08T11:46:10;44.47;;;21.38;;
85705;SDS011;76142;52.376;9.712;2024-03-08T11:48:37;44.78;;;21.45;;
85705;SDS011;76142;52.376;9.712;2024-03-08T11:51:12;41.70;;;21.85;;
85705;SDS011;76142;52.376;9.712;2024-03-08T11:53:39;43.03;;;21.55;;
85705;SDS011;76142;52.376;9.712;2024-03-08T11:56:08;41.38;;;21.27;;
85705;SDS011;76142;52.376;9.712;2024-03-08T11:58:38;46.83;;;23.63;;
85705;SDS011;76142;52.376;9.712;2024-03-08T12:01:09;43.97;;;21.75;;
85705;SDS011;76142;52.376;9.712;2024-03-08T12:03:39;44.60;;;21.42;;
85705;SDS011;76142;52.376;9.712;2024-03-08T12:06:07;41.05;;;20.42;;
85705;SDS011;76142;52.376;9.712;2024-03-08T12:08:38;41.97;;;21.15;;
85705;SDS011;76142;52.376;9.712;2024-03-08T12:11:04;43.25;;;21.50;;
85705;SDS011;76142;52.376;9.712;2024-03-08T12:13:31;44.28;;;22.00;;
85705;SDS011;76142;52.376;9.712;2024-03-08T12:15:59;41.42;;;22.25;;
85705;SDS011;76142;52.376;9.712;2024-03-08T12:18:26;43.70;;;21.50;;
85705;SDS011;76142;52.376;9.712;2024-03-08T12:21:14;43.40;;;20.40;;
85705;SDS011;76142;52.376;9.712;2024-03-08T12:23:42;46.65;;;20.58;;
85705;SDS011;76142;52.376;9.712;2024-03-08T12:26:15;38.92;;;18.83;;
85705;SDS011;76142;52.376;9.712;2024-03-08T12:28:49;34.35;;;16.77;;
85705;SDS011;76142;52.376;9.712;2024-03-08T12:31:15;33.22;;;16.50;;
85705;SDS011;76142;52.376;9.712;2024-03-08T12:33:50;35.28;;;16.27;;
85705;SDS011;76142;52.376;9.712;2024-03-08T12:36:24;38.67;;;17.48;;
85705;SDS011;76142;52.376;9.712;2024-03-08T12:38:50;37.17;;;17.50;;
85705;SDS011;76142;52.376;9.712;2024-03-08T12:41:19;31.75;;;15.70;;
85705;SDS011;76142;52.376;9.712;2024-03-08T12:43:45;30.40;;;16.02;;
85705;SDS011;76142;52.376;9.712;2024-03-08T12:46:15;35.00;;;17.23;;
85705;SDS011;76142;52.376;9.712;2024-03-08T12:48:41;36.33;;;18.42;;
85705;SDS011;76142;52.376;9.712;2024-03-08T12:51:12;30.50;;;16.75;;
85705;SDS011;76142;52.376;9.712;2024-03-08T12:53:43;33.88;;;17.80;;
85705;SDS011;76142;52.376;9.712;2024-03-08T12:56:09;35.55;;;18.30;;
85705;SDS011;76142;52.376;9.712;2024-03-08T12:58:36;38.75;;;18.58;;
85705;SDS011;76142;52.376;9.712;2024-03-08T13:01:02;33.17;;;17.02;;
85705;SDS011;76142;52.376;9.712;2024-03-08T13:03:35;35.00;;;18.88;;
85705;SDS011;76142;52.376;9.712;2024-03-08T13:06:02;34.20;;;18.08;;
85705;SDS011;76142;52.376;9.712;2024-03-08T13:08:34;35.70;;;18.48;;
85705;SDS011;76142;52.376;9.712;2024-03-08T13:11:08;39.10;;;19.90;;
85705;SDS011;76142;52.376;9.712;2024-03-08T13:13:39;45.20;;;22.33;;
85705;SDS011;76142;52.376;9.712;2024-03-08T13:16:06;48.10;;;22.65;;
85705;SDS011;76142;52.376;9.712;2024-03-08T13:18:36;44.95;;;22.90;;
85705;SDS011;76142;52.376;9.712;2024-03-08T13:21:02;43.30;;;22.70;;
85705;SDS011;76142;52.376;9.712;2024-03-08T13:23:34;47.53;;;22.60;;
85705;SDS011;76142;52.376;9.712;2024-03-08T13:26:11;47.97;;;22.50;;
85705;SDS011;76142;52.376;9.712;2024-03-08T13:28:41;43.10;;;22.00;;
85705;SDS011;76142;52.376;9.712;2024-03-08T13:31:23;42.13;;;20.07;;
85705;SDS011;76142;52.376;9.712;2024-03-08T13:33:49;41.55;;;21.08;;
85705;SDS011;76142;52.376;9.712;2024-03-08T13:36:16;42.97;;;21.88;;
85705;SDS011;76142;52.376;9.712;2024-03-08T13:38:49;38.05;;;19.08;;
85705;SDS011;76142;52.376;9.712;2024-03-08T13:41:15;38.83;;;19.33;;
85705;SDS011;76142;52.376;9.712;2024-03-08T13:43:51;39.08;;;20.85;;
85705;SDS011;76142;52.376;9.712;2024-03-08T13:46:18;36.03;;;19.15;;
85705;SDS011;76142;52.376;9.712;2024-03-08T13:48:44;37.22;;;19.15;;
85705;SDS011;76142;52.376;9.712;2024-03-08T13:51:10;34.35;;;19.13;;
85705;SDS011;76142;52.376;9.712;2024-03-08T13:53:39;33.33;;;18.13;;
85705;SDS011;76142;52.376;9.712;2024-03-08T13:56:05;26.27;;;16.40;;
85705;SDS011;76142;52.376;9.712;2024-03-08T13:58:31;27.73;;;16.70;;
85705;SDS011;76142;52.376;9.712;2024-03-08T14:00:57;30.42;;;16.75;;
85705;SDS011;76142;52.376;9.712;2024-03-08T14:03:22;30.63;;;17.60;;
85705;SDS011;76142;52.376;9.712;2024-03-08T14:05:49;29.40;;;17.73;;
85705;SDS011;76142;52.376;9.712;2024-03-08T14:08:15;31.98;;;18.35;;
85705;SDS011;76142;52.376;9.712;2024-03-08T14:10:42;29.52;;;18.20;;
85705;SDS011;76142;52.376;9.712;2024-03-08T14:13:08;40.78;;;20.80;;
85705;SDS011;76142;52.376;9.712;2024-03-08T14:15:34;39.65;;;20.58;;
85705;SDS011;76142;52.376;9.712;2024-03-08T14:18:00;40.67;;;21.65;;
85705;SDS011;76142;52.376;9.712;2024-03-08T14:20:31;37.17;;;20.65;;
85705;SDS011;76142;52.376;9.712;2024-03-08T14:22:57;49.85;;;24.50;;
85705;SDS011;76142;52.376;9.712;2024-03-08T14:25:23;33.10;;;17.73;;
85705;SDS011;76142;52.376;9.712;2024-03-08T14:27:50;63.60;;;30.23;;
85705;SDS011;76142;52.376;9.712;2024-03-08T14:30:19;47.05;;;22.55;;
85705;SDS011;76142;52.376;9.712;2024-03-08T14:32:59;33.80;;;18.95;;
85705;SDS011;76142;52.376;9.712;2024-03-08T14:35:26;34.15;;;17.55;;
85705;SDS011;76142;52.376;9.712;2024-03-08T14:37:52;32.80;;;17.60;;
85705;SDS011;76142;52.376;9.712;2024-03-08T14:40:17;29.92;;;15.90;;